sensor_id;sensor_type;location;lat;lon;timestamp;P1;durP1;ratioP1;P2;durP2;ratioP2
22184;SDS011;11258;52.516;13.318;2023-06-26T00:02:17;11.57;;;9.73;;
22184;SDS011;11258;52.516;13.318;2023-06-26T00:04:43;11.77;;;9.73;;
22184;SDS011;11258;52.516;13.318;2023-06-26T00:07:09;10.88;;;9.75;;
22184;SDS011;11258;52.516;13.318;2023-06-26T00:09:35;11.15;;;9.98;;
22184;SDS011;11258;52.516;13.318;2023-06-26T00:12:01;13.50;;;11.05;;
22184;SDS011;11258;52.516;13.318;2023-06-26T00:14:27;15.35;;;12.07;;
22184;SDS011;11258;52.516;13.318;2023-06-26T00:16:53;11.07;;;9.88;;
22184;SDS011;11258;52.516;13.318;2023-06-26T00:19:19;13.02;;;10.20;;
22184;SDS011;11258;52.516;13.318;2023-06-26T00:21:44;13.98;;;10.10;;
22184;SDS011;11258;52.516;13.318;2023-06-26T00:24:15;14.85;;;10.82;;
22184;SDS011;11258;52.516;13.318;2023-06-26T00:26:41;11.93;;;10.57;;
22184;SDS011;11258;52.516;13.318;2023-06-26T00:29:07;11.45;;;10.07;;
22184;SDS011;11258;52.516;13.318;2023-06-26T00:31:33;11.13;;;9.98;;
22184;SDS011;11258;52.516;13.318;2023-06-26T00:34:00;12.68;;;10.05;;
22184;SDS011;11258;52.516;13.318;2023-06-26T00:36:26;12.50;;;10.23;;
22184;SDS011;11258;52.516;13.318;2023-06-26T00:38:52;12.77;;;10.07;;
22184;SDS011;11258;52.516;13.318;2023-06-26T00:41:18;11.80;;;10.10;;
22184;SDS011;11258;52.516;13.318;2023-06-26T00:43:44;13.13;;;10.73;;
22184;SDS011;11258;52.516;13.318;2023-06-26T00:46:10;13.20;;;10.93;;
22184;SDS011;11258;52.516;13.318;2023-06-26T00:48:38;12.20;;;10.82;;
22184;SDS011;11258;52.516;13.318;2023-06-26T00:51:05;13.23;;;10.77;;
22184;SDS011;11258;52.516;13.318;2023-06-26T00:53:31;11.65;;;10.15;;
22184;SDS011;11258;52.516;13.318;2023-06-26T00:55:58;12.38;;;10.02;;
22184;SDS011;11258;52.516;13.318;2023-06-26T00:58:24;11.27;;;10.18;;
22184;SDS011;11258;52.516;13.318;2023-06-26T01:00:50;11.90;;;10.40;;
22184;SDS011;11258;52.516;13.318;2023-06-26T01:03:17;12.70;;;10.30;;
22184;SDS011;11258;52.516;13.318;2023-06-26T01:05:44;14.27;;;10.30;;
22184;SDS011;11258;52.516;13.318;2023-06-26T01:08:11;11.45;;;9.95;;
22184;SDS011;11258;52.516;13.318;2023-06-26T01:10:38;11.32;;;10.15;;
22184;SDS011;11258;52.516;13.318;2023-06-26T01:13:04;13.98;;;10.07;;
22184;SDS011;11258;52.516;13.318;2023-06-26T01:15:30;12.50;;;10.30;;
22184;SDS011;11258;52.516;13.318;2023-06-26T01:17:57;12.70;;;9.75;;
22184;SDS011;11258;52.516;13.318;2023-06-26T01:20:24;12.02;;;10.25;;
22184;SDS011;11258;52.516;13.318;2023-06-26T01:25:21;13.48;;;10.18;;
22184;SDS011;11258;52.516;13.318;2023-06-26T01:27:48;12.77;;;9.80;;
22184;SDS011;11258;52.516;13.318;2023-06-26T01:30:17;11.70;;;10.48;;
22184;SDS011;11258;52.516;13.318;2023-06-26T01:32:44;11.40;;;10.30;;
22184;SDS011;11258;52.516;13.318;2023-06-26T01:35:11;11.80;;;10.32;;
22184;SDS011;11258;52.516;13.318;2023-06-26T01:37:37;14.13;;;10.85;;
22184;SDS011;11258;52.516;13.318;2023-06-26T01:40:03;11.27;;;10.07;;
22184;SDS011;11258;52.516;13.318;2023-06-26T01:42:35;13.43;;;11.05;;
22184;SDS011;11258;52.516;13.318;2023-06-26T01:45:08;11.65;;;9.85;;
22184;SDS011;11258;52.516;13.318;2023-06-26T01:47:40;11.13;;;9.90;;
22184;SDS011;11258;52.516;13.318;2023-06-26T01:50:17;15.57;;;10.63;;
22184;SDS011;11258;52.516;13.318;2023-06-26T01:52:57;19.52;;;13.93;;
22184;SDS011;11258;52.516;13.318;2023-06-26T01:55:38;14.65;;;10.45;;
22184;SDS011;11258;52.516;13.318;2023-06-26T01:58:09;13.27;;;10.73;;
22184;SDS011;11258;52.516;13.318;2023-06-26T02:00:35;21.58;;;16.58;;
22184;SDS011;11258;52.516;13.318;2023-06-26T02:03:02;15.52;;;12.13;;
22184;SDS011;11258;52.516;13.318;2023-06-26T02:05:29;17.67;;;12.75;;
22184;SDS011;11258;52.516;13.318;2023-06-26T02:07:56;12.68;;;9.50;;
22184;SDS011;11258;52.516;13.318;2023-06-26T02:10:21;10.50;;;9.40;;
22184;SDS011;11258;52.516;13.318;2023-06-26T02:12:47;14.05;;;9.93;;
22184;SDS011;11258;52.516;13.318;2023-06-26T02:15:12;14.13;;;10.32;;
22184;SDS011;11258;52.516;13.318;2023-06-26T02:17:38;12.20;;;10.82;;
22184;SDS011;11258;52.516;13.318;2023-06-26T02:20:04;15.77;;;11.70;;
22184;SDS011;11258;52.516;13.318;2023-06-26T02:22:31;13.90;;;11.60;;
22184;SDS011;11258;52.516;13.318;2023-06-26T02:24:56;15.30;;;11.05;;
22184;SDS011;11258;52.516;13.318;2023-06-26T02:27:22;13.15;;;11.15;;
22184;SDS011;11258;52.516;13.318;2023-06-26T02:29:48;13.50;;;11.32;;
22184;SDS011;11258;52.516;13.318;2023-06-26T02:32:13;15.73;;;11.50;;
22184;SDS011;11258;52.516;13.318;2023-06-26T02:34:39;12.85;;;11.27;;
22184;SDS011;11258;52.516;13.318;2023-06-26T02:37:04;13.27;;;11.68;;
22184;SDS011;11258;52.516;13.318;2023-06-26T02:39:32;14.75;;;12.50;;
22184;SDS011;11258;52.516;13.318;2023-06-26T02:42:00;14.10;;;11.38;;
22184;SDS011;11258;52.516;13.318;2023-06-26T02:44:26;15.95;;;11.23;;
22184;SDS011;11258;52.516;13.318;2023-06-26T02:46:52;13.70;;;11.32;;
22184;SDS011;11258;52.516;13.318;2023-06-26T02:49:17;13.43;;;10.68;;
22184;SDS011;11258;52.516;13.318;2023-06-26T02:51:43;16.20;;;12.70;;
22184;SDS011;11258;52.516;13.318;2023-06-26T02:54:08;23.13;;;17.40;;
22184;SDS011;11258;52.516;13.318;2023-06-26T02:56:34;21.02;;;14.32;;
22184;SDS011;11258;52.516;13.318;2023-06-26T02:59:00;13.68;;;11.35;;
22184;SDS011;11258;52.516;13.318;2023-06-26T03:01:25;11.93;;;10.70;;
22184;SDS011;11258;52.516;13.318;2023-06-26T03:03:51;12.27;;;10.90;;
22184;SDS011;11258;52.516;13.318;2023-06-26T03:06:17;13.35;;;11.90;;
22184;SDS011;11258;52.516;13.318;2023-06-26T03:08:43;12.82;;;11.27;;
22184;SDS011;11258;52.516;13.318;2023-06-26T03:11:09;13.40;;;12.00;;
22184;SDS011;11258;52.516;13.318;2023-06-26T03:13:35;14.18;;;12.05;;
22184;SDS011;11258;52.516;13.318;2023-06-26T03:16:01;13.23;;;11.80;;
22184;SDS011;11258;52.516;13.318;2023-06-26T03:18:28;13.80;;;11.85;;
22184;SDS011;11258;52.516;13.318;2023-06-26T03:20:54;13.93;;;12.00;;
22184;SDS011;11258;52.516;13.318;2023-06-26T03:23:21;13.23;;;11.57;;
22184;SDS011;11258;52.516;13.318;2023-06-26T03:25:47;14.68;;;12.73;;
22184;SDS011;11258;52.516;13.318;2023-06-26T03:28:13;14.13;;;12.40;;
22184;SDS011;11258;52.516;13.318;2023-06-26T03:30:39;13.25;;;11.95;;
22184;SDS011;11258;52.516;13.318;2023-06-26T03:33:05;14.93;;;12.25;;
22184;SDS011;11258;52.516;13.318;2023-06-26T03:35:30;13.68;;;11.40;;
22184;SDS011;11258;52.516;13.318;2023-06-26T03:37:57;17.70;;;12.82;;
22184;SDS011;11258;52.516;13.318;2023-06-26T03:40:23;14.10;;;11.90;;
22184;SDS011;11258;52.516;13.318;2023-06-26T03:42:48;13.30;;;11.88;;
22184;SDS011;11258;52.516;13.318;2023-06-26T03:45:14;14.15;;;12.15;;
22184;SDS011;11258;52.516;13.318;2023-06-26T03:47:39;13.32;;;12.02;;
22184;SDS011;11258;52.516;13.318;2023-06-26T03:50:05;12.88;;;11.25;;
22184;SDS011;11258;52.516;13.318;2023-06-26T03:52:31;13.93;;;11.20;;
22184;SDS011;11258;52.516;13.318;2023-06-26T03:54:57;13.73;;;11.77;;
22184;SDS011;11258;52.516;13.318;2023-06-26T03:57:23;13.65;;;12.02;;
22184;SDS011;11258;52.516;13.318;2023-06-26T03:59:49;12.48;;;10.43;;
22184;SDS011;11258;52.516;13.318;2023-06-26T04:02:15;12.48;;;10.57;;
22184;SDS011;11258;52.516;13.318;2023-06-26T04:04:41;13.32;;;10.77;;
22184;SDS011;11258;52.516;13.318;2023-06-26T04:07:06;11.23;;;10.02;;
22184;SDS011;11258;52.516;13.318;2023-06-26T04:09:32;11.25;;;10.13;;
22184;SDS011;11258;52.516;13.318;2023-06-26T04:11:58;11.45;;;9.70;;
22184;SDS011;11258;52.516;13.318;2023-06-26T04:14:23;13.30;;;9.75;;
22184;SDS011;11258;52.516;13.318;2023-06-26T04:16:49;13.20;;;10.57;;
22184;SDS011;11258;52.516;13.318;2023-06-26T04:19:14;12.20;;;10.68;;
22184;SDS011;11258;52.516;13.318;2023-06-26T04:21:40;11.65;;;10.20;;
22184;SDS011;11258;52.516;13.318;2023-06-26T04:24:06;11.18;;;10.07;;
22184;SDS011;11258;52.516;13.318;2023-06-26T04:26:32;11.85;;;10.60;;
22184;SDS011;11258;52.516;13.318;2023-06-26T04:28:58;12.45;;;11.15;;
22184;SDS011;11258;52.516;13.318;2023-06-26T04:31:24;11.02;;;9.93;;
22184;SDS011;11258;52.516;13.318;2023-06-26T04:33:50;11.93;;;10.73;;
22184;SDS011;11258;52.516;13.318;2023-06-26T04:36:16;11.73;;;10.52;;
22184;SDS011;11258;52.516;13.318;2023-06-26T04:38:42;14.40;;;11.35;;
22184;SDS011;11258;52.516;13.318;2023-06-26T04:41:08;12.23;;;10.85;;
22184;SDS011;11258;52.516;13.318;2023-06-26T04:43:34;14.57;;;10.93;;
22184;SDS011;11258;52.516;13.318;2023-06-26T04:45:59;12.80;;;11.27;;
22184;SDS011;11258;52.516;13.318;2023-06-26T04:48:27;17.23;;;13.35;;
22184;SDS011;11258;52.516;13.318;2023-06-26T04:50:53;15.95;;;12.32;;
22184;SDS011;11258;52.516;13.318;2023-06-26T04:53:22;12.60;;;10.90;;
22184;SDS011;11258;52.516;13.318;2023-06-26T04:55:49;12.23;;;10.68;;
22184;SDS011;11258;52.516;13.318;2023-06-26T04:58:15;12.43;;;10.18;;
22184;SDS011;11258;52.516;13.318;2023-06-26T05:00:41;13.95;;;10.93;;
22184;SDS011;11258;52.516;13.318;2023-06-26T05:03:10;11.65;;;10.45;;
22184;SDS011;11258;52.516;13.318;2023-06-26T05:05:37;12.18;;;10.43;;
22184;SDS011;11258;52.516;13.318;2023-06-26T05:10:46;12.57;;;10.65;;
22184;SDS011;11258;52.516;13.318;2023-06-26T05:13:12;13.80;;;10.60;;
22184;SDS011;11258;52.516;13.318;2023-06-26T05:15:40;15.60;;;13.63;;
22184;SDS011;11258;52.516;13.318;2023-06-26T05:18:07;12.88;;;11.25;;
22184;SDS011;11258;52.516;13.318;2023-06-26T05:20:33;12.93;;;11.25;;
22184;SDS011;11258;52.516;13.318;2023-06-26T05:23:00;14.30;;;11.20;;
22184;SDS011;11258;52.516;13.318;2023-06-26T05:25:30;11.80;;;10.30;;
22184;SDS011;11258;52.516;13.318;2023-06-26T05:27:56;11.55;;;10.45;;
22184;SDS011;11258;52.516;13.318;2023-06-26T05:30:23;12.25;;;10.95;;
22184;SDS011;11258;52.516;13.318;2023-06-26T05:32:50;12.60;;;10.15;;
22184;SDS011;11258;52.516;13.318;2023-06-26T05:35:17;11.82;;;10.38;;
22184;SDS011;11258;52.516;13.318;2023-06-26T05:37:45;14.20;;;11.48;;
22184;SDS011;11258;52.516;13.318;2023-06-26T05:40:14;14.70;;;12.85;;
22184;SDS011;11258;52.516;13.318;2023-06-26T05:42:40;14.80;;;11.05;;
22184;SDS011;11258;52.516;13.318;2023-06-26T05:45:06;13.75;;;11.35;;
22184;SDS011;11258;52.516;13.318;2023-06-26T05:47:32;13.95;;;10.07;;
22184;SDS011;11258;52.516;13.318;2023-06-26T05:49:58;11.95;;;10.75;;
22184;SDS011;11258;52.516;13.318;2023-06-26T05:52:24;12.00;;;10.70;;
22184;SDS011;11258;52.516;13.318;2023-06-26T05:54:50;11.32;;;10.20;;
22184;SDS011;11258;52.516;13.318;2023-06-26T05:57:16;11.25;;;10.07;;
22184;SDS011;11258;52.516;13.318;2023-06-26T05:59:42;11.40;;;10.30;;
22184;SDS011;11258;52.516;13.318;2023-06-26T06:02:08;11.63;;;9.93;;
22184;SDS011;11258;52.516;13.318;2023-06-26T06:04:34;10.48;;;9.55;;
22184;SDS011;11258;52.516;13.318;2023-06-26T06:07:00;14.68;;;10.32;;
22184;SDS011;11258;52.516;13.318;2023-06-26T06:09:26;10.63;;;9.60;;
22184;SDS011;11258;52.516;13.318;2023-06-26T06:11:51;10.07;;;9.05;;
22184;SDS011;11258;52.516;13.318;2023-06-26T06:14:17;10.63;;;9.50;;
22184;SDS011;11258;52.516;13.318;2023-06-26T06:16:42;9.98;;;9.00;;
22184;SDS011;11258;52.516;13.318;2023-06-26T06:19:08;9.60;;;8.70;;
22184;SDS011;11258;52.516;13.318;2023-06-26T06:21:36;11.43;;;8.25;;
22184;SDS011;11258;52.516;13.318;2023-06-26T06:24:01;9.50;;;7.57;;
22184;SDS011;11258;52.516;13.318;2023-06-26T06:26:28;8.05;;;7.35;;
22184;SDS011;11258;52.516;13.318;2023-06-26T06:28:53;8.35;;;7.55;;
22184;SDS011;11258;52.516;13.318;2023-06-26T06:31:19;8.38;;;7.10;;
22184;SDS011;11258;52.516;13.318;2023-06-26T06:33:45;7.90;;;7.10;;
22184;SDS011;11258;52.516;13.318;2023-06-26T06:36:11;7.85;;;7.10;;
22184;SDS011;11258;52.516;13.318;2023-06-26T06:38:36;9.18;;;7.15;;
22184;SDS011;11258;52.516;13.318;2023-06-26T06:41:02;7.20;;;6.50;;
22184;SDS011;11258;52.516;13.318;2023-06-26T06:43:27;7.20;;;6.60;;
22184;SDS011;11258;52.516;13.318;2023-06-26T06:45:53;8.00;;;7.20;;
22184;SDS011;11258;52.516;13.318;2023-06-26T06:48:19;7.13;;;6.43;;
22184;SDS011;11258;52.516;13.318;2023-06-26T06:50:44;7.57;;;6.80;;
22184;SDS011;11258;52.516;13.318;2023-06-26T06:53:10;7.15;;;6.45;;
22184;SDS011;11258;52.516;13.318;2023-06-26T06:55:36;7.20;;;6.60;;
22184;SDS011;11258;52.516;13.318;2023-06-26T06:58:01;8.18;;;7.13;;
22184;SDS011;11258;52.516;13.318;2023-06-26T07:00:27;10.15;;;7.00;;
22184;SDS011;11258;52.516;13.318;2023-06-26T07:02:53;7.75;;;7.05;;
22184;SDS011;11258;52.516;13.318;2023-06-26T07:05:19;7.50;;;6.80;;
22184;SDS011;11258;52.516;13.318;2023-06-26T07:07:45;7.53;;;6.55;;
22184;SDS011;11258;52.516;13.318;2023-06-26T07:10:11;7.78;;;7.07;;
22184;SDS011;11258;52.516;13.318;2023-06-26T07:12:38;8.27;;;6.75;;
22184;SDS011;11258;52.516;13.318;2023-06-26T07:15:05;8.10;;;6.50;;
22184;SDS011;11258;52.516;13.318;2023-06-26T07:17:32;7.50;;;6.45;;
22184;SDS011;11258;52.516;13.318;2023-06-26T07:19:58;6.85;;;6.15;;
22184;SDS011;11258;52.516;13.318;2023-06-26T07:22:25;6.65;;;6.05;;
22184;SDS011;11258;52.516;13.318;2023-06-26T07:24:50;7.50;;;6.35;;
22184;SDS011;11258;52.516;13.318;2023-06-26T07:27:16;7.13;;;6.47;;
22184;SDS011;11258;52.516;13.318;2023-06-26T07:29:45;6.95;;;6.28;;
22184;SDS011;11258;52.516;13.318;2023-06-26T07:32:11;7.80;;;6.25;;
22184;SDS011;11258;52.516;13.318;2023-06-26T07:34:36;6.15;;;5.65;;
22184;SDS011;11258;52.516;13.318;2023-06-26T07:37:02;7.05;;;5.63;;
22184;SDS011;11258;52.516;13.318;2023-06-26T07:39:28;6.47;;;5.97;;
22184;SDS011;11258;52.516;13.318;2023-06-26T07:41:54;7.45;;;6.63;;
22184;SDS011;11258;52.516;13.318;2023-06-26T07:44:21;6.85;;;6.25;;
22184;SDS011;11258;52.516;13.318;2023-06-26T07:46:47;5.57;;;5.15;;
22184;SDS011;11258;52.516;13.318;2023-06-26T07:49:12;6.22;;;5.72;;
22184;SDS011;11258;52.516;13.318;2023-06-26T07:51:38;5.93;;;5.32;;
22184;SDS011;11258;52.516;13.318;2023-06-26T07:54:04;6.53;;;5.95;;
22184;SDS011;11258;52.516;13.318;2023-06-26T07:56:29;6.45;;;5.85;;
22184;SDS011;11258;52.516;13.318;2023-06-26T07:58:55;6.30;;;5.70;;
22184;SDS011;11258;52.516;13.318;2023-06-26T08:01:23;6.20;;;5.60;;
22184;SDS011;11258;52.516;13.318;2023-06-26T08:03:49;5.82;;;5.32;;
22184;SDS011;11258;52.516;13.318;2023-06-26T08:06:15;7.68;;;5.72;;
22184;SDS011;11258;52.516;13.318;2023-06-26T08:08:40;6.10;;;5.60;;
22184;SDS011;11258;52.516;13.318;2023-06-26T08:11:06;6.13;;;5.53;;
22184;SDS011;11258;52.516;13.318;2023-06-26T08:13:32;5.72;;;5.22;;
22184;SDS011;11258;52.516;13.318;2023-06-26T08:15:57;6.00;;;5.50;;
22184;SDS011;11258;52.516;13.318;2023-06-26T08:18:23;7.35;;;6.07;;
22184;SDS011;11258;52.516;13.318;2023-06-26T08:20:49;5.90;;;5.50;;
22184;SDS011;11258;52.516;13.318;2023-06-26T08:23:14;6.15;;;5.50;;
22184;SDS011;11258;52.516;13.318;2023-06-26T08:25:40;5.72;;;5.30;;
22184;SDS011;11258;52.516;13.318;2023-06-26T08:28:06;5.47;;;4.57;;
22184;SDS011;11258;52.516;13.318;2023-06-26T08:30:32;4.85;;;4.40;;
22184;SDS011;11258;52.516;13.318;2023-06-26T08:32:57;5.65;;;4.95;;
22184;SDS011;11258;52.516;13.318;2023-06-26T08:35:23;5.13;;;4.65;;
22184;SDS011;11258;52.516;13.318;2023-06-26T08:37:49;5.15;;;4.63;;
22184;SDS011;11258;52.516;13.318;2023-06-26T08:40:18;5.07;;;4.57;;
22184;SDS011;11258;52.516;13.318;2023-06-26T08:42:46;4.50;;;4.20;;
22184;SDS011;11258;52.516;13.318;2023-06-26T08:45:12;5.18;;;4.47;;
22184;SDS011;11258;52.516;13.318;2023-06-26T08:47:37;4.88;;;4.47;;
22184;SDS011;11258;52.516;13.318;2023-06-26T08:52:54;5.70;;;5.15;;
22184;SDS011;11258;52.516;13.318;2023-06-26T08:55:29;7.53;;;5.30;;
22184;SDS011;11258;52.516;13.318;2023-06-26T08:57:58;5.15;;;4.45;;
22184;SDS011;11258;52.516;13.318;2023-06-26T09:00:24;6.93;;;4.90;;
22184;SDS011;11258;52.516;13.318;2023-06-26T09:02:50;5.38;;;4.88;;
22184;SDS011;11258;52.516;13.318;2023-06-26T09:05:15;6.38;;;5.03;;
22184;SDS011;11258;52.516;13.318;2023-06-26T09:07:42;4.90;;;4.03;;
22184;SDS011;11258;52.516;13.318;2023-06-26T09:10:07;4.75;;;4.07;;
22184;SDS011;11258;52.516;13.318;2023-06-26T09:12:33;5.18;;;4.70;;
22184;SDS011;11258;52.516;13.318;2023-06-26T09:15:00;4.95;;;4.47;;
22184;SDS011;11258;52.516;13.318;2023-06-26T09:17:29;4.85;;;4.35;;
22184;SDS011;11258;52.516;13.318;2023-06-26T09:19:55;4.20;;;3.88;;
22184;SDS011;11258;52.516;13.318;2023-06-26T09:22:21;4.85;;;4.45;;
22184;SDS011;11258;52.516;13.318;2023-06-26T09:24:48;5.82;;;4.90;;
22184;SDS011;11258;52.516;13.318;2023-06-26T09:27:13;5.70;;;4.97;;
22184;SDS011;11258;52.516;13.318;2023-06-26T09:29:39;3.38;;;3.08;;
22184;SDS011;11258;52.516;13.318;2023-06-26T09:32:05;4.40;;;4.00;;
22184;SDS011;11258;52.516;13.318;2023-06-26T09:34:33;5.32;;;4.07;;
22184;SDS011;11258;52.516;13.318;2023-06-26T09:36:59;4.10;;;3.70;;
22184;SDS011;11258;52.516;13.318;2023-06-26T09:39:29;6.30;;;4.38;;
22184;SDS011;11258;52.516;13.318;2023-06-26T09:41:56;4.88;;;4.40;;
22184;SDS011;11258;52.516;13.318;2023-06-26T09:44:22;5.43;;;4.93;;
22184;SDS011;11258;52.516;13.318;2023-06-26T09:46:48;5.10;;;4.60;;
22184;SDS011;11258;52.516;13.318;2023-06-26T09:49:14;5.47;;;4.78;;
22184;SDS011;11258;52.516;13.318;2023-06-26T09:51:41;4.53;;;4.13;;
22184;SDS011;11258;52.516;13.318;2023-06-26T09:54:07;4.70;;;4.30;;
22184;SDS011;11258;52.516;13.318;2023-06-26T09:56:34;6.88;;;4.47;;
22184;SDS011;11258;52.516;13.318;2023-06-26T09:59:00;5.07;;;4.60;;
22184;SDS011;11258;52.516;13.318;2023-06-26T10:01:28;7.25;;;4.40;;
22184;SDS011;11258;52.516;13.318;2023-06-26T10:03:54;7.05;;;4.68;;
22184;SDS011;11258;52.516;13.318;2023-06-26T10:06:33;5.15;;;4.65;;
22184;SDS011;11258;52.516;13.318;2023-06-26T10:09:01;4.93;;;4.25;;
22184;SDS011;11258;52.516;13.318;2023-06-26T10:11:36;4.78;;;4.30;;
22184;SDS011;11258;52.516;13.318;2023-06-26T10:14:07;6.00;;;4.43;;
22184;SDS011;11258;52.516;13.318;2023-06-26T10:16:33;7.63;;;5.15;;
22184;SDS011;11258;52.516;13.318;2023-06-26T10:19:02;5.18;;;4.43;;
22184;SDS011;11258;52.516;13.318;2023-06-26T10:21:31;9.80;;;6.68;;
22184;SDS011;11258;52.516;13.318;2023-06-26T10:23:59;6.57;;;4.72;;
22184;SDS011;11258;52.516;13.318;2023-06-26T10:26:27;7.70;;;5.43;;
22184;SDS011;11258;52.516;13.318;2023-06-26T10:28:54;5.60;;;4.38;;
22184;SDS011;11258;52.516;13.318;2023-06-26T10:31:22;5.50;;;5.00;;
22184;SDS011;11258;52.516;13.318;2023-06-26T10:33:51;4.80;;;4.35;;
22184;SDS011;11258;52.516;13.318;2023-06-26T10:36:18;7.40;;;4.45;;
22184;SDS011;11258;52.516;13.318;2023-06-26T10:38:52;4.70;;;4.05;;
22184;SDS011;11258;52.516;13.318;2023-06-26T10:41:21;5.43;;;4.63;;
22184;SDS011;11258;52.516;13.318;2023-06-26T10:43:51;4.65;;;4.13;;
22184;SDS011;11258;52.516;13.318;2023-06-26T10:49:24;7.25;;;4.55;;
22184;SDS011;11258;52.516;13.318;2023-06-26T10:51:52;5.18;;;4.68;;
22184;SDS011;11258;52.516;13.318;2023-06-26T10:54:20;4.90;;;4.50;;
22184;SDS011;11258;52.516;13.318;2023-06-26T10:56:47;4.78;;;4.28;;
22184;SDS011;11258;52.516;13.318;2023-06-26T10:59:15;5.10;;;4.13;;
22184;SDS011;11258;52.516;13.318;2023-06-26T11:01:42;7.57;;;5.50;;
22184;SDS011;11258;52.516;13.318;2023-06-26T11:04:09;7.18;;;4.57;;
22184;SDS011;11258;52.516;13.318;2023-06-26T11:06:39;5.15;;;4.68;;
22184;SDS011;11258;52.516;13.318;2023-06-26T11:14:24;5.30;;;4.72;;
22184;SDS011;11258;52.516;13.318;2023-06-26T11:16:57;4.72;;;4.32;;
22184;SDS011;11258;52.516;13.318;2023-06-26T11:19:25;7.88;;;4.47;;
22184;SDS011;11258;52.516;13.318;2023-06-26T11:21:52;5.53;;;4.50;;
22184;SDS011;11258;52.516;13.318;2023-06-26T11:24:23;4.88;;;4.45;;
22184;SDS011;11258;52.516;13.318;2023-06-26T11:26:49;5.45;;;4.95;;
22184;SDS011;11258;52.516;13.318;2023-06-26T11:29:14;5.05;;;4.55;;
22184;SDS011;11258;52.516;13.318;2023-06-26T11:31:40;7.20;;;4.38;;
22184;SDS011;11258;52.516;13.318;2023-06-26T11:34:08;5.30;;;4.80;;
22184;SDS011;11258;52.516;13.318;2023-06-26T11:36:37;4.78;;;4.38;;
22184;SDS011;11258;52.516;13.318;2023-06-26T11:39:04;6.00;;;4.65;;
22184;SDS011;11258;52.516;13.318;2023-06-26T11:41:31;5.40;;;4.85;;
22184;SDS011;11258;52.516;13.318;2023-06-26T11:44:04;5.55;;;4.78;;
22184;SDS011;11258;52.516;13.318;2023-06-26T11:46:31;5.15;;;4.50;;
22184;SDS011;11258;52.516;13.318;2023-06-26T11:48:58;5.05;;;4.28;;
22184;SDS011;11258;52.516;13.318;2023-06-26T11:51:26;4.88;;;4.47;;
22184;SDS011;11258;52.516;13.318;2023-06-26T11:53:53;5.75;;;5.05;;
22184;SDS011;11258;52.516;13.318;2023-06-26T11:56:19;5.15;;;4.65;;
22184;SDS011;11258;52.516;13.318;2023-06-26T11:58:57;5.60;;;4.80;;
22184;SDS011;11258;52.516;13.318;2023-06-26T12:01:34;5.78;;;4.63;;
22184;SDS011;11258;52.516;13.318;2023-06-26T12:04:05;6.47;;;4.70;;
22184;SDS011;11258;52.516;13.318;2023-06-26T12:06:36;5.35;;;4.85;;
22184;SDS011;11258;52.516;13.318;2023-06-26T12:09:05;6.90;;;4.50;;
22184;SDS011;11258;52.516;13.318;2023-06-26T12:11:32;5.63;;;5.10;;
22184;SDS011;11258;52.516;13.318;2023-06-26T12:13:59;5.65;;;5.10;;
22184;SDS011;11258;52.516;13.318;2023-06-26T12:16:29;10.65;;;7.72;;
22184;SDS011;11258;52.516;13.318;2023-06-26T12:19:02;7.82;;;5.60;;
22184;SDS011;11258;52.516;13.318;2023-06-26T12:24:07;7.32;;;5.85;;
22184;SDS011;11258;52.516;13.318;2023-06-26T12:26:35;5.95;;;5.18;;
22184;SDS011;11258;52.516;13.318;2023-06-26T12:29:07;7.00;;;5.68;;
22184;SDS011;11258;52.516;13.318;2023-06-26T12:31:39;6.80;;;5.30;;
22184;SDS011;11258;52.516;13.318;2023-06-26T12:34:18;7.68;;;5.28;;
22184;SDS011;11258;52.516;13.318;2023-06-26T12:36:49;6.28;;;5.32;;
22184;SDS011;11258;52.516;13.318;2023-06-26T12:39:21;6.28;;;5.68;;
22184;SDS011;11258;52.516;13.318;2023-06-26T12:44:20;5.63;;;5.13;;
22184;SDS011;11258;52.516;13.318;2023-06-26T12:46:47;5.93;;;5.43;;
22184;SDS011;11258;52.516;13.318;2023-06-26T12:49:19;6.72;;;5.38;;
22184;SDS011;11258;52.516;13.318;2023-06-26T12:51:45;6.13;;;5.53;;
22184;SDS011;11258;52.516;13.318;2023-06-26T12:54:11;6.97;;;6.28;;
22184;SDS011;11258;52.516;13.318;2023-06-26T12:56:36;8.65;;;6.18;;
22184;SDS011;11258;52.516;13.318;2023-06-26T12:59:02;6.38;;;5.78;;
22184;SDS011;11258;52.516;13.318;2023-06-26T13:01:28;6.72;;;5.93;;
22184;SDS011;11258;52.516;13.318;2023-06-26T13:03:54;6.30;;;5.70;;
22184;SDS011;11258;52.516;13.318;2023-06-26T13:06:20;8.05;;;6.40;;
22184;SDS011;11258;52.516;13.318;2023-06-26T13:08:46;6.85;;;6.15;;
22184;SDS011;11258;52.516;13.318;2023-06-26T13:11:12;6.90;;;6.15;;
22184;SDS011;11258;52.516;13.318;2023-06-26T13:13:38;7.72;;;6.43;;
22184;SDS011;11258;52.516;13.318;2023-06-26T13:16:03;6.40;;;5.82;;
22184;SDS011;11258;52.516;13.318;2023-06-26T13:18:30;8.50;;;6.63;;
22184;SDS011;11258;52.516;13.318;2023-06-26T13:20:55;7.18;;;6.22;;
22184;SDS011;11258;52.516;13.318;2023-06-26T13:23:21;7.38;;;6.70;;
22184;SDS011;11258;52.516;13.318;2023-06-26T13:25:46;7.70;;;6.97;;
22184;SDS011;11258;52.516;13.318;2023-06-26T13:28:12;7.53;;;6.38;;
22184;SDS011;11258;52.516;13.318;2023-06-26T13:30:37;7.40;;;6.70;;
22184;SDS011;11258;52.516;13.318;2023-06-26T13:33:03;7.07;;;6.38;;
22184;SDS011;11258;52.516;13.318;2023-06-26T13:35:29;7.68;;;6.07;;
22184;SDS011;11258;52.516;13.318;2023-06-26T13:37:54;6.68;;;6.07;;
22184;SDS011;11258;52.516;13.318;2023-06-26T13:40:20;6.72;;;6.10;;
22184;SDS011;11258;52.516;13.318;2023-06-26T13:42:45;8.05;;;6.75;;
22184;SDS011;11258;52.516;13.318;2023-06-26T13:45:11;6.88;;;6.20;;
22184;SDS011;11258;52.516;13.318;2023-06-26T13:47:37;6.70;;;6.10;;
22184;SDS011;11258;52.516;13.318;2023-06-26T13:50:06;7.15;;;6.45;;
22184;SDS011;11258;52.516;13.318;2023-06-26T13:52:33;8.38;;;6.78;;
22184;SDS011;11258;52.516;13.318;2023-06-26T13:54:58;7.55;;;6.72;;
22184;SDS011;11258;52.516;13.318;2023-06-26T13:57:24;7.75;;;6.05;;
22184;SDS011;11258;52.516;13.318;2023-06-26T13:59:49;7.40;;;6.68;;
22184;SDS011;11258;52.516;13.318;2023-06-26T14:02:15;12.40;;;9.80;;
22184;SDS011;11258;52.516;13.318;2023-06-26T14:04:41;21.38;;;16.33;;
22184;SDS011;11258;52.516;13.318;2023-06-26T14:07:06;14.45;;;11.48;;
22184;SDS011;11258;52.516;13.318;2023-06-26T14:09:32;13.68;;;10.93;;
22184;SDS011;11258;52.516;13.318;2023-06-26T14:11:58;11.93;;;6.20;;
22184;SDS011;11258;52.516;13.318;2023-06-26T14:14:23;10.13;;;5.50;;
22184;SDS011;11258;52.516;13.318;2023-06-26T14:16:49;7.35;;;5.80;;
22184;SDS011;11258;52.516;13.318;2023-06-26T14:19:15;11.77;;;6.88;;
22184;SDS011;11258;52.516;13.318;2023-06-26T14:21:42;8.90;;;5.47;;
22184;SDS011;11258;52.516;13.318;2023-06-26T14:24:08;10.63;;;6.13;;
22184;SDS011;11258;52.516;13.318;2023-06-26T14:26:33;9.18;;;5.40;;
22184;SDS011;11258;52.516;13.318;2023-06-26T14:28:59;6.60;;;4.20;;
22184;SDS011;11258;52.516;13.318;2023-06-26T14:31:25;9.02;;;5.30;;
22184;SDS011;11258;52.516;13.318;2023-06-26T14:33:51;8.00;;;5.05;;
22184;SDS011;11258;52.516;13.318;2023-06-26T14:36:17;9.63;;;5.80;;
22184;SDS011;11258;52.516;13.318;2023-06-26T14:38:43;11.30;;;6.30;;
22184;SDS011;11258;52.516;13.318;2023-06-26T14:41:10;10.73;;;5.45;;
22184;SDS011;11258;52.516;13.318;2023-06-26T14:43:36;12.40;;;5.53;;